Map

Track Data

SID SEASON NUMBER BASIN SUBBASIN NAME ISO_TIME NATURE LAT LON WMO_WIND WMO_PRES WMO_AGENCY TRACK_TYPE DIST2LAND LANDFALL IFLAG USA_AGENCY USA_ATCF_ID USA_LAT USA_LON USA_RECORD USA_STATUS USA_WIND USA_PRES USA_SSHS USA_R34_NE USA_R34_SE USA_R34_SW USA_R34_NW USA_R50_NE USA_R50_SE USA_R50_SW USA_R50_NW USA_R64_NE USA_R64_SE USA_R64_SW USA_R64_NW USA_POCI USA_ROCI USA_RMW USA_EYE TOKYO_LAT TOKYO_LON TOKYO_GRADE TOKYO_WIND TOKYO_PRES TOKYO_R50_DIR TOKYO_R50_LONG TOKYO_R50_SHORT TOKYO_R30_DIR TOKYO_R30_LONG TOKYO_R30_SHORT TOKYO_LAND CMA_LAT CMA_LON CMA_CAT CMA_WIND CMA_PRES HKO_LAT HKO_LON HKO_CAT HKO_WIND HKO_PRES NEWDELHI_LAT NEWDELHI_LON NEWDELHI_GRADE NEWDELHI_WIND NEWDELHI_PRES NEWDELHI_CI NEWDELHI_DP NEWDELHI_POCI REUNION_LAT REUNION_LON REUNION_TYPE REUNION_WIND REUNION_PRES REUNION_TNUM REUNION_CI REUNION_RMW REUNION_R34_NE REUNION_R34_SE REUNION_R34_SW REUNION_R34_NW REUNION_R50_NE REUNION_R50_SE REUNION_R50_SW REUNION_R50_NW REUNION_R64_NE REUNION_R64_SE REUNION_R64_SW REUNION_R64_NW BOM_LAT BOM_LON BOM_TYPE BOM_WIND BOM_PRES BOM_TNUM BOM_CI BOM_RMW BOM_R34_NE BOM_R34_SE BOM_R34_SW BOM_R34_NW BOM_R50_NE BOM_R50_SE BOM_R50_SW BOM_R50_NW BOM_R64_NE BOM_R64_SE BOM_R64_SW BOM_R64_NW BOM_ROCI BOM_POCI BOM_EYE BOM_POS_METHOD BOM_PRES_METHOD NADI_LAT NADI_LON NADI_CAT NADI_WIND NADI_PRES WELLINGTON_LAT WELLINGTON_LON WELLINGTON_WIND WELLINGTON_PRES DS824_LAT DS824_LON DS824_STAGE DS824_WIND DS824_PRES TD9636_LAT TD9636_LON TD9636_STAGE TD9636_WIND TD9636_PRES TD9635_LAT TD9635_LON TD9635_WIND TD9635_PRES TD9635_ROCI NEUMANN_LAT NEUMANN_LON NEUMANN_CLASS NEUMANN_WIND NEUMANN_PRES MLC_LAT MLC_LON MLC_CLASS MLC_WIND MLC_PRES USA_GUST BOM_GUST BOM_GUST_PER REUNION_GUST REUNION_GUST_PER USA_SEAHGT USA_SEARAD_NE USA_SEARAD_SE USA_SEARAD_SW USA_SEARAD_NW STORM_SPEED STORM_DIR
1908338N06142 1908 54 WP MM NOT_NAMED 1908-12-02 16:00:00 NR 6.20000 141.500 main 947 943 __________O___ -1 6.20000 141.500 7 36 295
1908338N06142 1908 54 WP MM NOT_NAMED 1908-12-02 18:00:00 NR 6.69555 140.410 main 961 958 __________P___ -1 6.69555 140.410 7 35 294
1908338N06142 1908 54 WP MM NOT_NAMED 1908-12-02 21:00:00 NR 7.40751 138.824 main 973 970 __________P___ -1 7.40751 138.824 7 33 294
1908338N06142 1908 54 WP MM NOT_NAMED 1908-12-03 00:00:00 NR 8.04309 137.373 main 995 1000 __________P___ -1 8.04309 137.373 7 29 293
1908338N06142 1908 54 WP MM NOT_NAMED 1908-12-03 03:00:00 NR 8.56063 136.145 main 1043 1030 __________P___ -1 8.56063 136.145 7 25 293
1908338N06142 1908 54 WP MM NOT_NAMED 1908-12-03 04:00:00 NR 8.70000 135.800 main 1019 956 __________O___ -1 8.70000 135.800 7 20 292
1908338N06142 1908 54 WP MM NOT_NAMED 1908-12-03 06:00:00 NR 8.92467 135.216 main 956 885 __________P___ -1 8.92467 135.216 7 16 290
1908338N06142 1908 54 WP MM NOT_NAMED 1908-12-03 09:00:00 NR 9.15054 134.549 main 885 833 __________P___ -1 9.15054 134.549 7 12 287
1908338N06142 1908 54 WP MM NOT_NAMED 1908-12-03 12:00:00 NR 9.28469 134.035 main 833 793 __________P___ -1 9.28469 134.035 7 10 283
1908338N06142 1908 54 WP MM NOT_NAMED 1908-12-03 15:00:00 NR 9.37296 133.566 main 793 772 __________P___ -1 9.37296 133.566 7 10 280
1908338N06142 1908 54 WP MM NOT_NAMED 1908-12-03 16:00:00 NR 9.40000 133.400 main 772 732 __________O___ -1 9.40000 133.400 7 11 280
1908338N06142 1908 54 WP MM NOT_NAMED 1908-12-03 18:00:00 NR 9.47278 133.001 main 732 672 __________P___ -1 9.47278 133.001 7 12 279
1908338N06142 1908 54 WP MM NOT_NAMED 1908-12-03 21:00:00 NR 9.56301 132.391 main 672 601 __________P___ -1 9.56301 132.391 7 13 278
1908338N06142 1908 54 WP MM NOT_NAMED 1908-12-04 00:00:00 NR 9.65025 131.748 main 601 528 __________P___ -1 9.65025 131.748 7 13 278
1908338N06142 1908 54 WP MM NOT_NAMED 1908-12-04 03:00:00 NR 9.75655 131.049 main 528 506 __________P___ -1 9.75655 131.049 7 14 279
1908338N06142 1908 54 WP MM NOT_NAMED 1908-12-04 04:00:00 NR 9.80000 130.800 main 506 456 __________O___ -1 9.80000 130.800 7 16 280
1908338N06142 1908 54 WP MM NOT_NAMED 1908-12-04 06:00:00 NR 9.89229 130.263 main 456 362 __________P___ -1 9.89229 130.263 7 17 280
1908338N06142 1908 54 WP MM NOT_NAMED 1908-12-04 09:00:00 NR 10.0555 129.399 main 365 276 __________P___ -1 10.0555 129.399 7 18 282
1908338N06142 1908 54 WP MM NOT_NAMED 1908-12-04 12:00:00 NR 10.2565 128.499 main 280 204 __________P___ -1 10.2565 128.499 7 18 284
1908338N06142 1908 54 WP MM NOT_NAMED 1908-12-04 15:00:00 NR 10.5050 127.596 main 204 169 __________P___ -1 10.5050 127.596 7 18 286
1908338N06142 1908 54 WP MM NOT_NAMED 1908-12-04 16:00:00 NR 10.6000 127.300 main 169 100 __________O___ -1 10.6000 127.300 7 19 290
1908338N06142 1908 54 WP MM NOT_NAMED 1908-12-04 18:00:00 NR 10.8256 126.713 main 100 15 __________P___ -1 10.8256 126.713 7 19 293
1908338N06142 1908 54 WP MM NOT_NAMED 1908-12-04 21:00:00 NR 11.2088 125.844 main 15 0 __________P___ -1 11.2088 125.844 7 18 295
1908338N06142 1908 54 WP MM NOT_NAMED 1908-12-05 00:00:00 NR 11.6094 125.011 main 0 0 __________P___ -1 11.6094 125.011 7 18 296
1908338N06142 1908 54 WP MM NOT_NAMED 1908-12-05 03:00:00 NR 11.9865 124.239 main 10 0 __________P___ -1 11.9865 124.239 7 17 296
1908338N06142 1908 54 WP MM NOT_NAMED 1908-12-05 04:00:00 NR 12.1000 124.000 main 0 0 __________O___ -1 12.1000 124.000 3 14 293
1908338N06142 1908 54 WP MM NOT_NAMED 1908-12-05 06:00:00 NR 12.2675 123.564 main 0 0 __________P___ -1 12.2675 123.564 3 13 291
1908338N06142 1908 54 WP MM NOT_NAMED 1908-12-05 09:00:00 NR 12.4813 122.973 main 32 43 __________P___ -1 12.4813 122.973 3 12 291
1908338N06142 1908 54 WP MM NOT_NAMED 1908-12-05 12:00:00 NR 12.6837 122.426 main 60 43 __________P___ -1 12.6837 122.426 3 11 292
1908338N06142 1908 54 WP MM NOT_NAMED 1908-12-05 15:00:00 NR 12.9118 121.885 main 43 21 __________P___ -1 12.9118 121.885 3 12 294
1908338N06142 1908 54 WP MM NOT_NAMED 1908-12-05 16:00:00 NR 13.0000 121.700 main 21 0 __________O___ -1 13.0000 121.700 4 14 297
1908338N06142 1908 54 WP MM NOT_NAMED 1908-12-05 18:00:00 NR 13.2265 121.264 main 0 0 __________P___ -1 13.2265 121.264 4 15 299
1908338N06142 1908 54 WP MM NOT_NAMED 1908-12-05 21:00:00 NR 13.6043 120.596 main 22 15 __________P___ -1 13.6043 120.596 4 15 301
1908338N06142 1908 54 WP MM NOT_NAMED 1908-12-06 00:00:00 NR 13.9997 119.951 main 64 75 __________P___ -1 13.9997 119.951 4 14 303
1908338N06142 1908 54 WP MM NOT_NAMED 1908-12-06 03:00:00 NR 14.3812 119.371 main 87 92 __________P___ -1 14.3812 119.371 4 13 305
1908338N06142 1908 54 WP MM NOT_NAMED 1908-12-06 04:00:00 NR 14.5000 119.200 main 102 102 __________O___ -1 14.5000 119.200 4 11 306
1908338N06142 1908 54 WP MM NOT_NAMED 1908-12-06 06:00:00 NR 14.6975 118.917 main 129 129 __________P___ -1 14.6975 118.917 4 9 307
1908338N06142 1908 54 WP MM NOT_NAMED 1908-12-06 09:00:00 NR 14.9691 118.568 main 146 146 __________P___ -1 14.9691 118.568 4 8 311
1908338N06142 1908 54 WP MM NOT_NAMED 1908-12-06 12:00:00 NR 15.2303 118.275 main 173 173 __________P___ -1 15.2303 118.275 4 8 314
1908338N06142 1908 54 WP MM NOT_NAMED 1908-12-06 15:00:00 NR 15.5029 117.997 main 190 187 __________P___ -1 15.5029 117.997 4 8 316
1908338N06142 1908 54 WP MM NOT_NAMED 1908-12-06 16:00:00 NR 15.6000 117.900 main 197 197 __________O___ -1 15.6000 117.900 4 9 312
1908338N06142 1908 54 WP MM NOT_NAMED 1908-12-06 18:00:00 NR 15.8138 117.636 main 225 224 __________P___ -1 15.8138 117.636 4 10 311
1908338N06142 1908 54 WP MM NOT_NAMED 1908-12-06 21:00:00 NR 16.1533 117.233 main 268 268 __________P___ -1 16.1533 117.233 4 10 313
1908338N06142 1908 54 WP MM NOT_NAMED 1908-12-07 00:00:00 NR 16.5096 116.862 main 304 314 __________P___ -1 16.5096 116.862 4 10 319
1908338N06142 1908 54 WP MM NOT_NAMED 1908-12-07 03:00:00 NR 16.8764 116.571 main 345 345 __________P___ -1 16.8764 116.571 4 9 325
1908338N06142 1908 54 WP MM NOT_NAMED 1908-12-07 04:00:00 NR 17.0000 116.500 main 359 359 __________O___ -1 17.0000 116.500 4 8 335
1908338N06142 1908 54 WP MM NOT_NAMED 1908-12-07 06:00:00 NR 17.2570 116.386 main 378 378 __________P___ -1 17.2570 116.386 4 8 344
1908338N06142 1908 54 WP MM NOT_NAMED 1908-12-07 09:00:00 NR 17.6493 116.302 main 399 403 __________P___ -1 17.6493 116.302 4 8 356
1908338N06142 1908 54 WP MM NOT_NAMED 1908-12-07 12:00:00 NR 18.0334 116.321 main 417 418 __________P___ -1 18.0334 116.321 4 8 10
1908338N06142 1908 54 WP MM NOT_NAMED 1908-12-07 15:00:00 NR 18.3903 116.439 main 422 411 __________P___ -1 18.3903 116.439 4 7 20
1908338N06142 1908 54 WP MM NOT_NAMED 1908-12-07 16:00:00 NR 18.5000 116.500 main 414 406 __________O___ -1 18.5000 116.500 4 7 31
1908338N06142 1908 54 WP MM NOT_NAMED 1908-12-07 18:00:00 NR 18.7058 116.637 main 409 387 __________P___ -1 18.7058 116.637 4 8 40
1908338N06142 1908 54 WP MM NOT_NAMED 1908-12-07 21:00:00 NR 18.9832 116.924 main 391 358 __________P___ -1 18.9832 116.924 4 8 49
1908338N06142 1908 54 WP MM NOT_NAMED 1908-12-08 00:00:00 NR 19.2256 117.280 main 358 324 __________P___ -1 19.2256 117.280 4 8 57
1908338N06142 1908 54 WP MM NOT_NAMED 1908-12-08 03:00:00 NR 19.4363 117.669 main 324 319 __________P___ -1 19.4363 117.669 4 8 61
1908338N06142 1908 54 WP MM NOT_NAMED 1908-12-08 04:00:00 NR 19.5000 117.800 main 319 304 __________O___ -1 19.5000 117.800 4 8 62
1908338N06142 1908 54 WP MM NOT_NAMED 1908-12-08 06:00:00 NR 19.6201 118.039 main 304 279 __________P___ -1 19.6201 118.039 4 8 64
1908338N06142 1908 54 WP MM NOT_NAMED 1908-12-08 09:00:00 NR 19.7751 118.410 main 279 252 __________P___ -1 19.7751 118.410 4 8 67
1908338N06142 1908 54 WP MM NOT_NAMED 1908-12-08 12:00:00 NR 19.9137 118.790 main 252 229 __________P___ -1 19.9137 118.790 4 8 69
1908338N06142 1908 54 WP MM NOT_NAMED 1908-12-08 15:00:00 NR 20.0515 119.173 main 237 230 __________P___ -1 20.0515 119.173 4 8 69
1908338N06142 1908 54 WP MM NOT_NAMED 1908-12-08 16:00:00 NR 20.1000 119.300 main 230 222 __________O___ -1 20.1000 119.300 4 8 65
1908338N06142 1908 54 WP MM NOT_NAMED 1908-12-08 18:00:00 NR 20.2159 119.542 main 224 187 __________P___ -1 20.2159 119.542 4 8 62
1908338N06142 1908 54 WP MM NOT_NAMED 1908-12-08 21:00:00 NR 20.3963 119.905 main 187 151 __________P___ -1 20.3963 119.905 4 8 62
1908338N06142 1908 54 WP MM NOT_NAMED 1908-12-09 00:00:00 NR 20.5765 120.276 main 151 134 __________P___ -1 20.5765 120.276 4 8 64
1908338N06142 1908 54 WP MM NOT_NAMED 1908-12-09 03:00:00 NR 20.7469 120.665 main 134 123 __________P___ -1 20.7469 120.665 4 8 65
1908338N06142 1908 54 WP MM NOT_NAMED 1908-12-09 04:00:00 NR 20.8000 120.800 main 123 111 __________O___ -1 20.8000 120.800 4 8 69
1908338N06142 1908 54 WP MM NOT_NAMED 1908-12-09 06:00:00 NR 20.8999 121.083 main 113 108 __________P___ -1 20.8999 121.083 4 9 71
1908338N06142 1908 54 WP MM NOT_NAMED 1908-12-09 09:00:00 NR 21.0374 121.526 main 118 115 __________P___ -1 21.0374 121.526 4 9 73
1908338N06142 1908 54 WP MM NOT_NAMED 1908-12-09 12:00:00 NR 21.1598 121.984 main 138 138 __________P___ -1 21.1598 121.984 4 9 75
1908338N06142 1908 54 WP MM NOT_NAMED 1908-12-09 15:00:00 NR 21.2674 122.446 main 168 178 __________P___ -1 21.2674 122.446 4 9 76
1908338N06142 1908 54 WP MM NOT_NAMED 1908-12-09 16:00:00 NR 21.3000 122.600 main 188 188 __________O___ -1 21.3000 122.600 4 9 78
1908338N06142 1908 54 WP MM NOT_NAMED 1908-12-09 18:00:00 NR 21.3604 122.905 main 214 214 __________P___ -1 21.3604 122.905 4 9 79
1908338N06142 1908 54 WP MM NOT_NAMED 1908-12-09 21:00:00 NR 21.4411 123.357 main 264 262 __________P___ -1 21.4411 123.357 4 9 80
1908338N06142 1908 54 WP MM NOT_NAMED 1908-12-10 00:00:00 NR 21.5127 123.806 main 302 302 __________P___ -1 21.5127 123.806 4 8 81
1908338N06142 1908 54 WP MM NOT_NAMED 1908-12-10 03:00:00 NR 21.5787 124.252 main 342 342 __________P___ -1 21.5787 124.252 4 8 81
1908338N06142 1908 54 WP MM NOT_NAMED 1908-12-10 04:00:00 NR 21.6000 124.400 main 351 __________O___ -1 21.6000 124.400 7 8 81

Digital Typhoon Data and Search

About IBTrACS Database

This database is a web-friendly format of International Best Track Archive for Climate Stewardship (IBTrACS), a global best track data archive curated by NOAA dating back to 1842.

Updated: 2021-11-26